Time;durP1;ratioP1;P1;durP2;ratioP2;P2;SDS_P1;SDS_P2;PMS_P1;PMS_P2;Temp;Humidity;BMP_temperature;BMP_pressure;BME280_temperature;BME280_humidity;BME280_pressure;Samples;Min_cycle;Max_cycle;Signal;HPM_P1;HPM_P2
2022/01/18 00:12:55;;;;;;;23.10;9.50;;;;;;;0.17;69.45;101528.78;107506;1289;22074;-81
2022/01/18 00:24:59;;;;;;;;;;;;;;;;;;;;;
2022/01/18 00:28:51;;;;;;;;;;;;;;;;;;;;;
2022/01/18 00:37:23;;;;;;;15.40;7.50;;;;;;;0.15;69.78;101549.66;108232;1282;23604;-83
2022/01/18 00:47:55;;;;;;;19.80;8.30;;;;;;;0.12;69.95;101570.39;106672;1300;22031;-81
2022/01/18 00:51:36;;;;;;;;;;;;;;;;;;;;;
2022/01/18 00:54:46;;;;;;;;;;;;;;;;;;;;;
2022/01/18 00:58:15;;;;;;;26.10;8.90;;;;;;;0.13;70.15;101581.80;107241;1294;22033;-81
2022/01/18 01:01:42;;;;;;;;;;;;;;;;;;;;;
2022/01/18 01:04:37;;;;;;;;;;;;;;;;;;;;;
2022/01/18 01:07:47;;;;;;;23.00;8.40;;;;;;;0.10;70.07;101594.20;108281;1282;23725;-81
2022/01/18 01:42:57;;;;;;;19.00;7.20;;;;;;;-0.08;70.34;101643.20;106684;1298;23136;-82
2022/01/18 01:45:51;;;;;;;;;;;;;;;;;;;;;
2022/01/18 01:49:12;;;;;;;;;;;;;;;;;;;;;
2022/01/18 01:55:54;;;;;;;22.80;8.40;;;;;;;-0.16;70.64;101643.74;107969;1283;22013;-83
2022/01/18 01:59:23;;;;;;;27.40;9.00;;;;;;;-0.19;70.67;101640.92;108125;1279;22014;-82
2022/01/18 02:02:25;;;;;;;22.60;7.00;;;;;;;-0.22;70.69;101638.10;108379;1281;21997;-81
2022/01/18 02:10:07;;;;;;;;;;;;;;;;;;;;;
2022/01/18 02:13:55;;;;;;;;;;;;;;;;;;;;;
2022/01/18 02:21:56;;;;;;;;;;;;;;;;;;;;;
2022/01/18 02:25:15;;;;;;;17.20;6.20;;;;;;;-0.32;71.30;101626.74;107887;1285;22095;-81
2022/01/18 02:28:37;;;;;;;;;;;;;;;;;;;;;
2022/01/18 02:31:58;;;;;;;19.60;6.20;;;;;;;-0.34;71.39;101623.52;107942;1282;23639;-81
2022/01/18 02:35:21;;;;;;;22.00;7.00;;;;;;;-0.35;71.50;101633.64;108609;1268;21989;-81
2022/01/18 02:39:53;;;;;;;;;;;;;;;;;;;;;
2022/01/18 02:47:10;;;;;;;20.50;6.30;;;;;;;-0.38;71.85;101646.04;108195;1282;23716;-82
2022/01/18 02:50:51;;;;;;;18.80;7.10;;;;;;;-0.35;71.83;101654.60;108146;1279;22086;-82
2022/01/18 02:57:41;;;;;;;;;;;;;;;;;;;;;
2022/01/18 03:04:28;;;;;;;;;;;;;;;;;;;;;
2022/01/18 03:11:21;;;;;;;;;;;;;;;;;;;;;
2022/01/18 03:14:34;;;;;;;;;;;;;;;;;;;;;
2022/01/18 03:18:20;;;;;;;;;;;;;;;;;;;;;
2022/01/18 03:21:13;;;;;;;20.10;5.70;;;;;;;-0.32;72.04;101641.48;107602;1290;22121;-82
2022/01/18 03:24:19;;;;;;;17.60;5.30;;;;;;;-0.32;72.14;101651.87;107685;1284;22025;-82
2022/01/18 03:30:53;;;;;;;16.00;6.20;;;;;;;-0.30;72.29;101669.58;107984;1285;24415;-80
2022/01/18 03:33:40;;;;;;;22.60;7.20;;;;;;;-0.31;72.40;101678.98;108132;1276;24339;-82
2022/01/18 03:37:44;;;;;;;;;;;;;;;;;;;;;
2022/01/18 03:42:25;;;;;;;;;;;;;;;;;;;;;
2022/01/18 03:46:04;;;;;;;;;;;;;;;;;;;;;
2022/01/18 03:50:01;;;;;;;;;;;;;;;;;;;;;
2022/01/18 03:53:02;;;;;;;15.40;6.80;;;;;;;-0.34;72.58;101712.53;107354;1291;22511;-81
2022/01/18 03:56:25;;;;;;;;;;;;;;;;;;;;;
2022/01/18 04:00:26;;;;;;;;;;;;;;;;;;;;;
2022/01/18 04:03:13;;;;;;;20.10;7.60;;;;;;;-0.29;72.52;101705.20;105999;1306;22979;-81
2022/01/18 04:06:11;;;;;;;;;;;;;;;;;;;;;
2022/01/18 04:08:56;;;;;;;;;;;;;;;;;;;;;
2022/01/18 04:11:59;;;;;;;28.80;9.90;;;;;;;-0.12;72.68;101719.37;107351;1292;544424;-81
2022/01/18 04:14:43;;;;;;;17.80;8.00;;;;;;;-0.13;72.44;101726.36;109081;1267;21957;-83
2022/01/18 04:18:03;;;;;;;20.80;8.00;;;;;;;-0.19;72.40;101729.55;109299;1267;21995;-81
2022/01/18 04:27:17;;;;;;;30.00;9.00;;;;;;;-0.26;72.67;101738.69;109336;1263;24064;-82
2022/01/18 04:30:12;;;;;;;25.10;11.50;;;;;;;-0.28;72.62;101743.08;110418;1255;23487;-83
2022/01/18 04:33:03;;;;;;;30.50;12.80;;;;;;;-0.29;72.60;101749.17;110309;1257;22088;-83
2022/01/18 04:36:36;;;;;;;;;;;;;;;;;;;;;
2022/01/18 04:39:38;;;;;;;21.90;7.30;;;;;;;-0.32;72.88;101747.91;110475;1257;21978;-83
2022/01/18 04:43:02;;;;;;;24.30;7.50;;;;;;;-0.31;72.94;101753.95;110290;1257;21977;-82
2022/01/18 04:49:20;;;;;;;17.00;6.20;;;;;;;-0.33;72.97;101759.41;110519;1257;23585;-82
2022/01/18 04:53:09;;;;;;;20.20;8.20;;;;;;;-0.34;73.01;101766.02;110853;1252;21981;-81
2022/01/18 04:56:15;;;;;;;;;;;;;;;;;;;;;
2022/01/18 04:59:20;;;;;;;14.60;5.80;;;;;;;-0.37;73.00;101777.38;110733;1254;21981;-81
2022/01/18 05:02:12;;;;;;;13.30;5.70;;;;;;;-0.36;73.14;101776.48;110451;1257;22192;-81
2022/01/18 05:05:39;;;;;;;;;;;;;;;-0.33;73.20;101779.85;110376;1257;21960;-81
2022/01/18 05:08:34;;;;;;;16.00;6.20;;;;;;;-0.40;73.33;101781.86;110369;1257;21991;-81
2022/01/18 05:11:29;;;;;;;25.80;7.60;;;;;;;-0.40;73.33;101786.89;110116;1257;22845;-81
2022/01/18 05:17:39;;;;;;;25.10;8.20;;;;;;;-0.38;73.26;101792.83;110285;1257;22130;-80
2022/01/18 05:23:59;;;;;;;;;;;;;;;;;;;;;
2022/01/18 05:27:14;;;;;;;;;;;;;;;;;;;;;
2022/01/18 05:30:20;;;;;;;19.80;7.50;;;;;;;-0.32;73.57;101784.95;110824;1252;23036;-80
2022/01/18 05:33:22;;;;;;;19.30;7.20;;;;;;;-0.30;73.56;101781.08;110271;1258;21977;-80
2022/01/18 05:36:20;;;;;;;22.80;7.30;;;;;;;-0.29;73.47;101780.88;110361;1258;22040;-80
2022/01/18 05:39:22;;;;;;;;;;;;;;;;;;;;;
2022/01/18 05:42:18;;;;;;;23.40;7.40;;;;;;;-0.28;73.49;101786.20;109458;1264;22023;-81
2022/01/18 05:45:01;;;;;;;24.30;8.20;;;;;;;-0.28;73.53;101784.81;109506;1263;21996;-82
2022/01/18 05:47:52;;;;;;;24.60;8.60;;;;;;;-0.27;73.45;101785.47;109351;1264;22084;-80
2022/01/18 05:51:08;;;;;;;22.70;8.90;;;;;;;-0.31;73.56;101792.02;109387;1263;23016;-81
2022/01/18 05:53:50;;;;;;;28.90;9.50;;;;;;;-0.32;73.65;101796.91;109591;1261;22939;-81
2022/01/18 05:56:42;;;;;;;26.20;10.00;;;;;;;-0.32;73.63;101797.95;109593;1261;23128;-80
2022/01/18 05:59:44;;;;;;;29.40;8.90;;;;;;;-0.33;73.48;101806.46;109785;1256;22293;-81
2022/01/18 06:02:41;;;;;;;;;;;;;;;;;;;;;
2022/01/18 06:09:09;;;;;;;;;;;;;;;;;;;;;
2022/01/18 06:11:47;;;;;;;18.80;8.10;;;;;;;-0.26;73.99;101818.32;109024;1270;23762;-80
2022/01/18 06:14:50;;;;;;;25.30;7.50;;;;;;;-0.24;74.02;101818.74;109041;1269;22439;-80
2022/01/18 06:18:16;;;;;;;;;;;;;;;;;;;;;
2022/01/18 06:21:00;;;;;;;22.00;7.50;;;;;;;-0.20;73.91;101820.67;109325;1265;22989;-81
2022/01/18 06:23:51;;;;;;;25.40;10.30;;;;;;;-0.19;73.91;101828.44;109481;1263;22304;-82
2022/01/18 06:26:28;;;;;;;23.60;9.10;;;;;;;-0.17;74.00;101826.45;109619;1258;21982;-81
2022/01/18 06:29:21;;;;;;;20.90;8.70;;;;;;;-0.18;73.94;101829.78;110043;1252;22600;-82
2022/01/18 06:32:19;;;;;;;21.20;8.60;;;;;;;-0.17;74.02;101832.84;110812;1252;21965;-81
2022/01/18 06:34:59;;;;;;;20.30;7.60;;;;;;;-0.15;74.04;101840.54;110794;1252;22920;-82
2022/01/18 06:37:37;;;;;;;19.40;7.90;;;;;;;-0.11;74.19;101844.55;110626;1257;21972;-80
2022/01/18 06:40:50;;;;;;;21.10;10.10;;;;;;;-0.11;74.19;101851.45;110664;1255;23152;-80
2022/01/18 06:43:48;;;;;;;;;;;;;;;;;;;;;
2022/01/18 06:46:41;;;;;;;23.90;11.10;;;;;;;-0.07;74.17;101857.18;110430;1257;22001;-81
2022/01/18 06:49:57;;;;;;;19.20;9.40;;;;;;;-0.05;74.24;101866.80;110714;1257;23706;-80
2022/01/18 06:53:15;;;;;;;25.20;9.20;;;;;;;-0.03;74.23;101872.94;110701;1256;21971;-81
2022/01/18 06:56:26;;;;;;;23.60;9.90;;;;;;;-0.04;74.18;101877.15;109509;1263;21982;-80
2022/01/18 06:59:29;;;;;;;21.60;8.70;;;;;;;-0.04;74.31;101876.97;109882;1261;21995;-80
2022/01/18 07:02:09;;;;;;;24.50;9.90;;;;;;;-0.00;74.33;101877.55;108931;1267;24422;-80
2022/01/18 07:04:55;;;;;;;21.70;10.00;;;;;;;0.05;74.33;101884.24;109075;1267;23050;-79
2022/01/18 07:07:47;;;;;;;21.40;9.70;;;;;;;0.07;74.32;101888.00;109206;1267;21994;-82
2022/01/18 07:10:56;;;;;;;26.90;12.00;;;;;;;0.08;74.37;101890.04;108998;1272;21988;-82
2022/01/18 07:13:47;;;;;;;25.40;10.60;;;;;;;0.08;74.33;101895.73;108978;1272;23606;-81
2022/01/18 07:16:39;;;;;;;24.00;11.00;;;;;;;0.07;74.24;101898.74;108840;1272;24501;-80
2022/01/18 07:19:41;;;;;;;;;;;;;;;;;;;;;
2022/01/18 07:22:32;;;;;;;;;;;;;;;;;;;;;
2022/01/18 07:25:36;;;;;;;27.80;11.60;;;;;;;0.05;74.31;101913.52;109448;1267;21989;-80
2022/01/18 07:28:59;;;;;;;;;;;;;;;;;;;;;
2022/01/18 07:32:09;;;;;;;24.20;9.40;;;;;;;0.04;74.47;101924.83;109364;1261;25091;-80
2022/01/18 07:35:26;;;;;;;22.40;10.00;;;;;;;0.06;74.50;101926.48;110350;1258;22002;-81
2022/01/18 07:38:18;;;;;;;22.70;10.80;;;;;;;0.08;74.49;101922.92;109608;1261;24323;-81
2022/01/18 07:41:18;;;;;;;26.10;12.40;;;;;;;0.10;74.44;101929.63;109486;1264;21977;-81
2022/01/18 07:44:46;;;;;;;;;;;;;;;;;;;;;
2022/01/18 07:47:53;;;;;;;;;;;;;;;;;;;;;
2022/01/18 07:51:06;;;;;;;26.90;12.50;;;;;;;0.12;74.41;101957.27;109078;1269;22079;-81
2022/01/18 07:55:04;;;;;;;;;;;;;;;;;;;;;
2022/01/18 07:57:43;;;;;;;29.80;12.40;;;;;;;0.10;74.24;101961.14;109214;1269;22047;-83
2022/01/18 08:00:21;;;;;;;30.60;12.50;;;;;;;0.11;74.32;101966.45;108905;1273;21993;-81
2022/01/18 08:03:29;;;;;;;29.50;15.00;;;;;;;0.17;74.47;101971.73;109009;1270;21987;-81
2022/01/18 08:06:28;;;;;;;37.40;16.50;;;;;;;0.22;74.45;101983.17;108784;1273;23109;-80
2022/01/18 08:09:18;;;;;;;26.70;14.30;;;;;;;0.29;74.53;101996.08;108683;1274;21989;-81
2022/01/18 08:12:02;;;;;;;25.00;14.10;;;;;;;0.35;74.62;102000.88;108907;1270;21985;-81
2022/01/18 08:14:59;;;;;;;28.80;12.90;;;;;;;0.41;74.48;101996.62;109252;1270;23791;-81
2022/01/18 08:17:59;;;;;;;29.00;13.30;;;;;;;0.42;74.27;101999.52;109684;1264;22043;-81
2022/01/18 08:21:02;;;;;;;;;;;;;;;;;;;;;
2022/01/18 08:23:42;;;;;;;27.50;14.20;;;;;;;0.53;74.35;102016.96;109322;1264;22096;-80
2022/01/18 08:26:37;;;;;;;27.80;13.00;;;;;;;0.58;74.25;102026.61;109042;1267;23678;-81
2022/01/18 08:29:40;;;;;;;35.20;14.70;;;;;;;0.61;74.25;102033.77;109416;1266;22005;-81
2022/01/18 08:33:10;;;;;;;36.60;13.70;;;;;;;0.62;74.03;102035.11;109764;1263;22477;-81
2022/01/18 08:35:54;;;;;;;29.80;14.70;;;;;;;0.64;74.06;102032.26;109513;1269;22564;-81
2022/01/18 08:38:39;;;;;;;28.70;15.50;;;;;;;0.68;74.03;102036.95;109163;1269;22009;-81
2022/01/18 08:41:18;;;;;;;25.20;12.90;;;;;;;0.74;74.08;102045.23;109178;1267;21976;-81
2022/01/18 08:44:42;;;;;;;;;;;;;;;;;;;;;
2022/01/18 08:48:06;;;;;;;30.30;15.90;;;;;;;0.89;74.44;102053.07;110228;1259;22013;-82
2022/01/18 08:50:54;;;;;;;23.20;12.00;;;;;;;1.00;74.39;102055.56;110207;1258;23004;-81
2022/01/18 08:53:50;;;;;;;27.30;14.60;;;;;;;1.05;73.98;102058.13;110289;1252;23585;-77
2022/01/18 08:56:45;;;;;;;30.80;13.10;;;;;;;1.10;73.87;102064.67;110412;1255;22842;-77
2022/01/18 08:59:30;;;;;;;21.00;13.30;;;;;;;1.12;73.51;102069.83;110290;1258;23409;-77
2022/01/18 09:02:06;;;;;;;29.20;12.30;;;;;;;1.11;73.24;102079.92;109912;1258;22285;-78
2022/01/18 09:04:48;;;;;;;25.20;12.30;;;;;;;1.09;73.06;102082.41;110072;1258;23682;-77
2022/01/18 09:07:23;;;;;;;25.70;12.00;;;;;;;1.08;72.96;102088.39;110038;1258;24303;-77
2022/01/18 09:10:02;;;;;;;29.10;13.80;;;;;;;1.07;72.85;102093.29;110181;1258;22734;-77
2022/01/18 09:12:33;;;;;;;21.80;11.10;;;;;;;1.06;72.91;102100.80;110050;1258;21969;-78
2022/01/18 09:15:08;;;;;;;24.40;11.80;;;;;;;1.06;72.90;102103.38;110258;1258;22001;-77
2022/01/18 09:17:41;;;;;;;29.00;12.40;;;;;;;1.06;72.76;102113.12;110241;1255;24374;-78
2022/01/18 09:20:17;;;;;;;28.00;13.10;;;;;;;1.06;72.72;102118.48;110462;1253;22020;-77
2022/01/18 09:22:54;;;;;;;26.50;13.30;;;;;;;1.07;72.74;102120.02;110451;1252;23590;-77
2022/01/18 09:25:30;;;;;;;31.40;12.90;;;;;;;1.05;72.61;102125.30;110475;1253;21975;-78
2022/01/18 09:28:00;;;;;;;27.50;14.60;;;;;;;1.04;72.66;102127.41;110615;1253;22750;-78
2022/01/18 09:31:05;;;;;;;29.60;13.80;;;;;;;1.03;72.62;102122.77;110568;1252;22979;-77
2022/01/18 09:33:42;;;;;;;24.60;11.30;;;;;;;1.04;72.74;102126.54;110474;1253;22471;-78
2022/01/18 09:36:14;;;;;;;32.80;13.40;;;;;;;1.03;72.49;102134.21;109981;1259;22758;-80
2022/01/18 09:38:46;;;;;;;28.20;14.00;;;;;;;1.05;72.66;102138.16;110096;1260;22567;-78
2022/01/18 09:41:26;;;;;;;27.00;12.40;;;;;;;1.08;72.69;102138.88;109942;1261;22021;-78
2022/01/18 09:44:10;;;;;;;25.30;12.10;;;;;;;1.09;72.53;102137.81;110143;1261;21950;-77
2022/01/18 09:46:40;;;;;;;27.70;13.80;;;;;;;1.11;72.56;102142.91;109300;1266;23044;-78
2022/01/18 09:49:17;;;;;;;27.70;13.60;;;;;;;1.12;72.53;102146.88;109248;1267;22016;-78
2022/01/18 09:51:55;;;;;;;25.00;13.80;;;;;;;1.13;72.42;102149.27;109352;1266;22937;-79
2022/01/18 09:54:32;;;;;;;28.90;14.30;;;;;;;1.13;72.33;102150.32;109265;1266;22650;-79
2022/01/18 09:57:05;;;;;;;29.70;14.20;;;;;;;1.14;72.41;102151.98;109232;1264;22309;-78
2022/01/18 09:59:48;;;;;;;28.50;15.30;;;;;;;1.20;72.52;102152.30;108776;1270;22024;-79
2022/01/18 10:02:21;;;;;;;26.40;16.00;;;;;;;1.25;72.37;102154.15;108832;1270;21995;-78
2022/01/18 10:05:32;;;;;;;29.90;16.70;;;;;;;1.24;72.19;102154.55;108366;1272;22004;-79
2022/01/18 10:08:12;;;;;;;26.40;14.60;;;;;;;1.21;72.03;102153.09;108727;1273;21999;-79
2022/01/18 10:11:10;;;;;;;36.60;18.30;;;;;;;1.22;72.17;102156.19;108341;1279;22337;-79
2022/01/18 10:13:56;;;;;;;32.20;16.20;;;;;;;1.26;72.33;102161.40;108443;1275;23654;-79
2022/01/18 10:16:26;;;;;;;30.70;16.30;;;;;;;1.29;72.24;102160.56;108564;1275;23109;-78
2022/01/18 10:19:03;;;;;;;32.90;16.90;;;;;;;1.31;72.29;102162.73;108857;1270;23036;-78
2022/01/18 10:21:49;;;;;;;31.00;16.60;;;;;;;1.32;72.05;102163.41;108932;1270;22932;-80
2022/01/18 10:24:30;;;;;;;37.50;19.00;;;;;;;1.29;71.92;102163.16;108783;1270;23335;-80
2022/01/18 10:27:01;;;;;;;35.40;20.20;;;;;;;1.30;72.06;102171.11;109114;1269;21999;-80
2022/01/18 10:29:41;;;;;;;36.00;20.60;;;;;;;1.32;72.05;102180.40;109197;1261;22000;-80
2022/01/18 10:32:19;;;;;;;36.30;22.20;;;;;;;1.34;71.97;102184.31;109880;1261;22021;-80
2022/01/18 10:37:42;;;;;;;;;;;;;;;;;;;;;
2022/01/18 10:40:33;;;;;;;30.90;20.00;;;;;;;1.35;71.61;102196.44;109119;1270;23603;-81
2022/01/18 10:43:27;;;;;;;32.50;20.70;;;;;;;1.39;71.78;102198.69;108889;1273;22188;-79
2022/01/18 10:46:14;;;;;;;33.20;19.50;;;;;;;1.42;71.63;102199.61;108924;1271;21997;-80
2022/01/18 10:48:48;;;;;;;31.90;19.00;;;;;;;1.45;71.67;102203.86;108812;1273;22309;-79
2022/01/18 10:51:34;;;;;;;41.50;21.10;;;;;;;1.46;71.45;102207.11;108949;1270;22035;-79
2022/01/18 10:54:13;;;;;;;39.00;24.00;;;;;;;1.47;71.50;102206.88;108465;1276;22053;-80
2022/01/18 10:56:47;;;;;;;63.70;37.20;;;;;;;1.50;71.59;102208.15;108394;1279;22029;-77
2022/01/18 10:59:25;;;;;;;62.30;35.00;;;;;;;1.53;71.56;102203.00;108591;1275;23151;-77
2022/01/18 11:02:32;;;;;;;95.30;57.30;;;;;;;1.53;71.41;102194.81;108604;1273;22040;-77
2022/01/18 11:05:27;;;;;;;75.70;46.30;;;;;;;1.51;71.36;102196.64;108819;1273;23058;-77
2022/01/18 11:08:04;;;;;;;53.30;34.50;;;;;;;1.55;71.65;102193.87;108850;1267;23711;-78
2022/01/18 11:10:43;;;;;;;42.10;28.60;;;;;;;1.62;71.76;102194.44;108969;1267;21986;-78
2022/01/18 11:13:36;;;;;;;40.80;28.00;;;;;;;1.71;71.65;102202.91;109942;1260;22056;-78
2022/01/18 11:16:14;;;;;;;40.10;26.00;;;;;;;1.72;71.04;102206.20;110293;1255;22059;-77
2022/01/18 11:18:58;;;;;;;;;;;;;;;;;;;;;
2022/01/18 11:22:00;;;;;;;46.10;29.80;;;;;;;1.76;71.22;102210.18;110542;1255;21986;-76
2022/01/18 11:24:36;;;;;;;41.20;25.80;;;;;;;1.80;71.13;102213.11;109893;1261;23048;-77
2022/01/18 11:27:14;;;;;;;46.90;30.60;;;;;;;1.86;71.12;102214.42;109722;1261;22800;-77
2022/01/18 11:29:47;;;;;;;39.80;31.30;;;;;;;1.87;70.77;102214.20;109774;1260;23593;-77
2022/01/18 11:32:17;;;;;;;58.90;40.20;;;;;;;1.83;70.58;102211.27;109145;1267;22001;-77
2022/01/18 11:35:25;;;;;;;53.10;33.40;;;;;;;1.75;70.47;102202.58;109303;1263;21993;-77
2022/01/18 11:38:34;;;;;;;40.10;28.50;;;;;;;1.70;70.74;102204.36;109316;1264;22001;-76
2022/01/18 11:41:29;;;;;;;44.80;29.50;;;;;;;1.73;70.93;102206.48;109330;1264;23043;-77
2022/01/18 11:44:26;;;;;;;;;;;;;;;;;;;;;
2022/01/18 11:47:01;;;;;;;42.00;27.90;;;;;;;1.81;70.67;102211.69;110085;1257;23677;-76
2022/01/18 11:49:49;;;;;;;44.50;27.80;;;;;;;1.85;70.77;102208.38;110010;1255;21970;-79
2022/01/18 11:52:37;;;;;;;77.30;47.10;;;;;;;1.94;70.72;102212.70;110777;1253;23585;-81
2022/01/18 11:55:45;;;;;;;74.30;45.60;;;;;;;1.92;70.19;102217.81;110474;1253;22850;-79
2022/01/18 11:58:15;;;;;;;65.00;40.60;;;;;;;1.91;70.23;102221.20;110153;1258;22019;-77
2022/01/18 12:00:57;;;;;;;54.70;38.10;;;;;;;1.93;70.27;102227.49;109267;1264;22014;-75
2022/01/18 12:03:41;;;;;;;44.20;32.70;;;;;;;1.95;70.01;102227.96;108717;1270;22818;-77
2022/01/18 12:06:14;;;;;;;39.80;26.50;;;;;;;1.93;70.04;102228.40;108633;1270;23598;-76
2022/01/18 12:08:45;;;;;;;31.60;23.00;;;;;;;1.91;69.97;102225.02;108607;1270;22005;-75
2022/01/18 12:11:24;;;;;;;33.10;23.30;;;;;;;1.88;69.91;102222.18;108794;1270;23177;-78
2022/01/18 12:14:04;;;;;;;32.90;24.20;;;;;;;1.88;69.93;102215.73;108868;1270;23759;-77
2022/01/18 12:16:52;;;;;;;39.50;27.60;;;;;;;1.82;69.63;102215.97;108863;1267;23865;-79
2022/01/18 12:19:47;;;;;;;36.10;26.00;;;;;;;1.84;69.78;102215.91;109516;1261;21993;-78
2022/01/18 12:23:03;;;;;;;41.00;29.00;;;;;;;1.87;69.72;102218.72;109624;1259;22369;-80
2022/01/18 12:26:45;;;;;;;36.80;28.80;;;;;;;1.89;69.83;102220.02;110245;1258;22989;-81
2022/01/18 12:33:28;;;;;;;43.70;27.60;;;;;;;1.98;69.93;102217.38;109773;1261;22035;-78
2022/01/18 12:36:39;;;;;;;40.70;30.50;;;;;;;2.03;69.97;102217.17;109437;1264;22053;-78
2022/01/18 12:39:16;;;;;;;35.60;24.30;;;;;;;2.07;69.79;102214.73;109090;1265;21985;-79
2022/01/18 12:41:57;;;;;;;49.10;36.80;;;;;;;2.06;69.68;102210.42;109691;1262;23035;-78
2022/01/18 12:45:25;;;;;;;;;;;;;;;;;;;;;
2022/01/18 12:48:09;;;;;;;43.90;32.80;;;;;;;2.00;69.60;102210.89;108908;1270;22455;-78
2022/01/18 12:50:56;;;;;;;45.30;29.90;;;;;;;2.00;69.51;102215.91;108929;1273;22007;-78
2022/01/18 12:53:33;;;;;;;40.60;27.60;;;;;;;2.01;69.37;102214.46;108289;1279;22080;-77
2022/01/18 12:56:20;;;;;;;45.10;29.70;;;;;;;2.06;69.38;102217.23;108157;1281;23203;-77
2022/01/18 12:58:55;;;;;;;31.60;24.30;;;;;;;2.07;69.26;102219.10;108169;1279;23645;-77
2022/01/18 13:01:29;;;;;;;35.10;23.40;;;;;;;2.06;69.12;102223.27;108091;1279;23706;-78
2022/01/18 13:04:07;;;;;;;38.90;24.00;;;;;;;2.04;68.93;102224.41;108190;1279;23629;-78
2022/01/18 13:07:00;;;;;;;35.00;23.80;;;;;;;2.00;68.81;102224.77;108342;1272;23597;-78
2022/01/18 13:10:15;;;;;;;40.70;24.30;;;;;;;1.98;68.93;102225.40;108519;1273;21988;-78
2022/01/18 13:13:02;;;;;;;43.10;27.30;;;;;;;1.99;69.06;102226.58;108893;1267;21984;-77
2022/01/18 13:16:04;;;;;;;48.50;28.80;;;;;;;2.00;69.05;102224.79;108883;1270;22958;-78
2022/01/18 13:27:48;;;;;;;79.20;47.20;;;;;;;1.90;68.75;102227.33;109907;1258;22093;-78
2022/01/18 13:30:26;;;;;;;42.00;28.80;;;;;;;1.88;68.75;102224.44;109988;1258;21995;-78
2022/01/18 13:33:14;;;;;;;30.90;23.20;;;;;;;1.89;68.87;102228.19;109996;1255;23609;-77
2022/01/18 13:37:11;;;;;;;28.40;22.00;;;;;;;1.86;68.71;102227.29;110405;1253;22976;-79
2022/01/18 13:39:53;;;;;;;30.10;22.40;;;;;;;1.73;68.65;102233.42;109248;1265;21995;-77
2022/01/18 13:42:43;;;;;;;36.40;24.20;;;;;;;1.65;68.79;102234.08;108831;1273;24470;-78
2022/01/18 13:45:27;;;;;;;35.30;23.20;;;;;;;1.63;68.81;102228.41;108967;1272;22848;-78
2022/01/18 13:48:12;;;;;;;32.10;22.20;;;;;;;1.56;68.52;102228.23;108751;1273;23777;-77
2022/01/18 13:50:58;;;;;;;31.00;22.90;;;;;;;1.48;68.45;102232.90;108599;1272;24055;-78
2022/01/18 13:54:02;;;;;;;33.20;22.00;;;;;;;1.44;68.69;102230.44;108657;1270;23623;-78
2022/01/18 13:56:50;;;;;;;39.20;24.00;;;;;;;1.43;68.79;102232.73;108832;1272;22212;-78
2022/01/18 13:59:38;;;;;;;37.70;24.70;;;;;;;1.43;68.74;102240.03;108505;1276;23677;-77
2022/01/18 14:02:25;;;;;;;35.70;23.90;;;;;;;1.44;68.72;102249.20;108751;1273;22299;-78
2022/01/18 14:05:18;;;;;;;40.20;24.50;;;;;;;1.44;68.88;102258.05;108812;1273;22030;-78
2022/01/18 14:08:11;;;;;;;46.90;27.80;;;;;;;1.44;68.91;102263.08;108840;1273;22192;-78
2022/01/18 14:11:23;;;;;;;73.70;43.80;;;;;;;1.44;68.95;102270.56;108352;1276;23120;-77
2022/01/18 14:14:25;;;;;;;65.30;36.10;;;;;;;1.35;68.83;102275.79;108432;1272;22771;-78
2022/01/18 14:17:13;;;;;;;68.10;41.80;;;;;;;1.26;68.90;102277.02;109200;1261;23606;-78
2022/01/18 14:20:13;;;;;;;56.80;35.90;;;;;;;1.18;68.99;102275.05;109679;1260;21984;-77
2022/01/18 14:23:00;;;;;;;61.30;37.40;;;;;;;1.12;69.07;102266.42;109628;1261;23834;-79
2022/01/18 14:25:39;;;;;;;49.90;31.00;;;;;;;1.11;69.24;102265.44;108799;1269;23686;-78
2022/01/18 14:28:17;;;;;;;34.40;24.90;;;;;;;1.11;69.31;102272.55;108977;1267;22032;-78
2022/01/18 14:30:49;;;;;;;37.40;23.50;;;;;;;1.11;69.34;102273.75;109048;1267;21987;-79
2022/01/18 14:33:31;;;;;;;;;;;;;;;1.14;69.46;102280.42;108988;1264;22017;-77
2022/01/18 14:36:13;;;;;;;40.60;23.30;;;;;;;1.10;69.62;102275.17;109037;1267;23729;-78
2022/01/18 14:38:46;;;;;;;36.70;22.60;;;;;;;1.12;69.66;102270.77;108834;1270;21992;-78
2022/01/18 14:41:24;;;;;;;35.20;22.80;;;;;;;1.15;69.66;102271.86;108842;1270;22010;-77
2022/01/18 14:44:14;;;;;;;36.10;21.10;;;;;;;1.19;69.64;102273.63;108768;1267;23701;-76
2022/01/18 14:47:23;;;;;;;36.10;23.90;;;;;;;1.22;69.53;102276.29;109023;1264;22062;-76
2022/01/18 14:49:49;;;;;;;39.40;23.10;;;;;;;1.21;69.42;102282.20;109250;1264;23758;-76
2022/01/18 14:52:23;;;;;;;43.00;25.30;;;;;;;1.21;69.53;102279.63;109103;1264;23597;-77
2022/01/18 14:54:56;;;;;;;45.00;27.60;;;;;;;1.22;69.59;102278.20;109186;1264;21987;-79
2022/01/18 14:57:31;;;;;;;62.00;34.70;;;;;;;1.25;69.48;102279.83;109162;1264;21990;-77
2022/01/18 15:00:11;;;;;;;72.80;42.40;;;;;;;1.24;69.40;102283.85;109364;1265;22736;-78
2022/01/18 15:02:45;;;;;;;50.40;27.60;;;;;;;1.23;69.34;102284.23;109715;1260;22800;-77
2022/01/18 15:05:23;;;;;;;57.40;35.20;;;;;;;1.19;69.28;102278.48;110065;1261;21974;-77
2022/01/18 15:08:00;;;;;;;46.60;28.30;;;;;;;1.14;69.17;102275.38;109844;1261;21995;-78
2022/01/18 15:10:42;;;;;;;45.00;28.20;;;;;;;1.09;69.26;102270.71;110113;1258;21975;-79
2022/01/18 15:13:38;;;;;;;41.20;25.10;;;;;;;1.06;69.24;102271.88;110130;1258;21969;-76
2022/01/18 15:16:26;;;;;;;36.30;23.00;;;;;;;1.02;69.32;102282.63;109696;1261;22835;-78
2022/01/18 15:18:57;;;;;;;36.00;23.70;;;;;;;0.99;69.37;102285.84;109840;1261;23036;-77
2022/01/18 15:21:41;;;;;;;53.90;26.80;;;;;;;0.97;69.41;102285.41;109703;1261;22088;-77
2022/01/18 15:24:17;;;;;;;40.00;28.10;;;;;;;0.96;69.61;102286.86;109816;1261;21979;-77
2022/01/18 15:26:59;;;;;;;47.30;32.70;;;;;;;0.96;69.70;102288.23;109690;1261;22046;-79
2022/01/18 15:29:35;;;;;;;44.30;31.10;;;;;;;0.95;69.63;102281.84;109498;1260;21995;-76
2022/01/18 15:32:20;;;;;;;48.20;34.40;;;;;;;0.94;69.67;102281.35;109744;1262;21984;-78
2022/01/18 15:34:53;;;;;;;43.30;31.80;;;;;;;0.94;69.70;102280.98;110187;1254;23020;-77
2022/01/18 15:37:25;;;;;;;54.10;33.90;;;;;;;0.94;69.90;102278.73;110805;1253;22057;-78
2022/01/18 15:40:06;;;;;;;45.30;31.00;;;;;;;0.92;69.77;102274.64;110804;1253;21936;-77
2022/01/18 15:42:38;;;;;;;50.70;32.60;;;;;;;0.89;69.76;102271.13;110659;1256;21975;-78
2022/01/18 15:45:16;;;;;;;54.80;34.50;;;;;;;0.83;69.76;102263.36;110322;1257;23622;-77
2022/01/18 15:47:56;;;;;;;56.40;38.40;;;;;;;0.80;69.86;102260.36;110028;1258;21978;-77
2022/01/18 15:50:26;;;;;;;63.50;38.30;;;;;;;0.79;70.06;102264.59;110280;1258;23587;-77
2022/01/18 15:53:11;;;;;;;52.40;36.10;;;;;;;0.75;70.14;102268.00;110158;1258;21976;-77
2022/01/18 15:55:53;;;;;;;57.70;39.90;;;;;;;0.73;70.30;102269.49;110048;1259;22044;-77
2022/01/18 15:58:29;;;;;;;54.10;38.10;;;;;;;0.70;70.30;102268.58;110540;1257;21971;-77
2022/01/18 16:01:02;;;;;;;62.70;42.00;;;;;;;0.66;70.30;102267.65;109980;1259;22075;-77
2022/01/18 16:03:35;;;;;;;78.90;49.20;;;;;;;0.63;70.49;102275.08;109531;1261;21933;-77
2022/01/18 16:06:16;;;;;;;79.90;53.50;;;;;;;0.59;70.77;102282.48;109929;1260;23611;-77
2022/01/18 16:08:46;;;;;;;89.70;58.50;;;;;;;0.57;70.85;102278.76;109833;1261;22039;-77
2022/01/18 16:11:22;;;;;;;88.90;60.60;;;;;;;0.55;70.95;102282.13;109806;1261;22045;-76
2022/01/18 16:14:04;;;;;;;84.70;57.30;;;;;;;0.53;71.03;102286.39;109766;1261;21983;-77
2022/01/18 16:16:38;;;;;;;79.60;56.60;;;;;;;0.48;71.06;102280.45;109416;1267;22328;-77
2022/01/18 16:19:24;;;;;;;80.80;55.10;;;;;;;0.47;71.29;102284.31;109068;1268;23799;-77
2022/01/18 16:21:58;;;;;;;66.70;47.80;;;;;;;0.46;71.48;102287.66;109388;1261;21982;-77
2022/01/18 16:24:29;;;;;;;87.30;56.70;;;;;;;0.42;71.47;102286.05;109775;1260;21994;-77
2022/01/18 16:27:10;;;;;;;72.30;47.60;;;;;;;0.39;71.56;102281.66;109624;1260;21986;-77
2022/01/18 16:29:44;;;;;;;85.30;49.70;;;;;;;0.36;71.63;102278.29;109281;1264;24551;-77
2022/01/18 16:32:23;;;;;;;75.00;52.10;;;;;;;0.34;71.75;102279.40;109102;1264;22431;-77
2022/01/18 16:34:53;;;;;;;76.60;50.70;;;;;;;0.33;71.89;102277.20;109431;1263;23140;-77
2022/01/18 16:37:36;;;;;;;;;;;;;;;;;;;;;
2022/01/18 16:40:14;;;;;;;79.40;51.90;;;;;;;0.29;72.18;102277.33;108439;1276;23984;-77